الصفحة الرئيسية
METAR-TAF:

METAR-TAF

مطار :

مطار انجمينا الدولي

انجمينا, تشاد

دائرة عرض: 12-08N, خط طول: 015-02E, ارتفاع: 295 متر

مراقبة الطقس الحالي

تاريخ ووقت الإصدار 28 دقيقة قبل الساعة 07:00UTC
ريح 13 عقدة من الجنوب الغربي
درجة الحرارة 24°درجة مئوية
الرطوبة 78%
ضغط 1010 hPa
الرؤية 10 كم أو أكثر
غيوم قليلة على ارتفاع 3300 قدم

METAR: FTTJ 240700Z 23013KT 9999 FEW033 24/20 Q1010 NOSIG

زمن: 08:28 (07:28 UTC)

توقعات

تاريخ ووقت الإصدار 2ساعات و 28 دقيقة قبل الساعة 05:00UTC
التوقعات صالحة من24 الساعة 06 UTC إلى 25 الساعة 12 UTC
ريح 2 عقدةمن اتجاهات متغيرة
الرؤية 10 كم أو أكثر
غيوم قليلة على ارتفاع 5000 قدم, مزنة ركامية.
أصبح
من 24 الساعة 06 UTC إلى 24 الساعة 08 UTC
ريح 10 عقدة من الجنوب/الجنوب الغربي
نظرية الاحتمالات 30% :
مؤقت
من 24 الساعة 15 UTC إلى 24 الساعة 21 UTC
الرؤية: 4000 متر
عاصفة رعدية, مطر

TAF: FTTJ 240500Z 2406/2512 VRB02KT 9999 FEW050CB BECMG 2406/2408 20010KT PROB30 TEMPO 2415/2421 4000 TSRA

أرصاد الطقس والتوقعات من أكثر من 4000 مطار (تقارير الطقس للمطار METAR والتنبؤ بالطقس بالمطارTAF).

المحطات المتاحة هي النقط الصفراء والحمراء على الخريطة.

حرك المؤشر فوق النقطة لمعرفة اسم المحطة.

ثم انقر لمعرفة أرصاد وتوقعات الطقس.

لتغيير الخارطة: اضغط على الأزرار الخضراء مع رمز الصليب الأسود للتكبير. على الزر الأخضر مع شرطة للتصغير، أو على الأسهم الخضراء للخرائط المجاورة.


METAR-TAF: